BWA526 TTPP-SYCJ
Flight info
| Callsign | BWA526 |
|---|---|
| Flight time | 1h 5m |
| Altitude | 33000 |
| Route | POS DCT VOKAV DCT GATUX DCT AKSIN DCT OGRUM |
| Aircraft | B38M/M-SDE2E3FGHIRWXY/LB1 |
Departure
| Time | 2026-04-25 01:20 |
|---|---|
| Airport | Piarco International Airport (TTPP) |
Arrival
| Time | 2026-04-25 02:25 |
|---|---|
| Airport | Cheddi Jagan International Airport (SYCJ) |
| Time | Latitude | Longitude | Altitude | Speed | Heading |
|---|---|---|---|---|---|
| 2026-04-25 00:56 | 10.59937 | -61.33857 | 50 ft | 0 kts | 360° |
| 2026-04-25 01:05 | 10.59928 | -61.33857 | 50 ft | 4 kts | 360° |
| 2026-04-25 01:05 | 10.59901 | -61.33858 | 50 ft | 4 kts | 2° |
| 2026-04-25 01:05 | 10.59874 | -61.33857 | 50 ft | 4 kts | 356° |
| 2026-04-25 01:05 | 10.59847 | -61.33855 | 50 ft | 4 kts | 351° |
| 2026-04-25 01:06 | 10.59833 | -61.33852 | 50 ft | 1 kts | 351° |
| 2026-04-25 01:06 | 10.59832 | -61.33852 | 50 ft | 0 kts | 351° |
| 2026-04-25 01:08 | 10.59837 | -61.33857 | 50 ft | 1 kts | 319° |
| 2026-04-25 01:08 | 10.59842 | -61.33877 | 50 ft | 5 kts | 264° |
| 2026-04-25 01:09 | 10.59835 | -61.33928 | 50 ft | 10 kts | 270° |
| 2026-04-25 01:09 | 10.59836 | -61.34013 | 49 ft | 15 kts | 272° |
| 2026-04-25 01:09 | 10.59836 | -61.34134 | 50 ft | 19 kts | 264° |
| 2026-04-25 01:09 | 10.59782 | -61.34176 | 50 ft | 0 kts | 180° |
| 2026-04-25 01:18 | 10.59779 | -61.34176 | 50 ft | 1 kts | 179° |
| 2026-04-25 01:18 | 10.59757 | -61.34175 | 50 ft | 6 kts | 179° |
| 2026-04-25 01:18 | 10.59716 | -61.34210 | 49 ft | 12 kts | 260° |
| 2026-04-25 01:18 | 10.59707 | -61.34303 | 50 ft | 15 kts | 269° |
| 2026-04-25 01:19 | 10.59706 | -61.34418 | 50 ft | 18 kts | 269° |
| 2026-04-25 01:19 | 10.59647 | -61.34518 | 46 ft | 21 kts | 180° |
| 2026-04-25 01:19 | 10.59540 | -61.34463 | 50 ft | 19 kts | 94° |
| 2026-04-25 01:19 | 10.59538 | -61.34241 | 51 ft | 65 kts | 88° |
| 2026-04-25 01:20 | 10.59539 | -61.33495 | 50 ft | 143 kts | 89° |
| 2026-04-25 01:20 | 10.59547 | -61.32305 | 370 ft | 180 kts | 89° |
| 2026-04-25 01:20 | 10.59600 | -61.31031 | 1405 ft | 181 kts | 87° |
| 2026-04-25 01:20 | 10.59675 | -61.30187 | 2228 ft | 172 kts | 85° |
| 2026-04-25 01:21 | 10.59805 | -61.28505 | 3244 ft | 195 kts | 93° |
| 2026-04-25 01:21 | 10.59620 | -61.27573 | 3586 ft | 204 kts | 110° |
| 2026-04-25 01:21 | 10.58614 | -61.25986 | 4767 ft | 197 kts | 128° |
| 2026-04-25 01:21 | 10.58012 | -61.25282 | 5375 ft | 197 kts | 129° |
| 2026-04-25 01:22 | 10.57002 | -61.24229 | 5753 ft | 225 kts | 137° |
| 2026-04-25 01:22 | 10.55677 | -61.23190 | 6032 ft | 256 kts | 141° |
| 2026-04-25 01:22 | 10.54385 | -61.22230 | 6565 ft | 268 kts | 142° |
| 2026-04-25 01:22 | 10.52894 | -61.21118 | 7394 ft | 274 kts | 142° |
| 2026-04-25 01:23 | 10.51386 | -61.19977 | 8278 ft | 277 kts | 141° |
| 2026-04-25 01:23 | 10.49812 | -61.18765 | 9100 ft | 283 kts | 141° |
| 2026-04-25 01:23 | 10.48241 | -61.17538 | 9934 ft | 287 kts | 141° |
| 2026-04-25 01:23 | 10.46635 | -61.16271 | 10483 ft | 303 kts | 141° |
| 2026-04-25 01:24 | 10.44899 | -61.14889 | 10656 ft | 329 kts | 141° |
| 2026-04-25 01:24 | 10.43057 | -61.13415 | 11110 ft | 343 kts | 141° |
| 2026-04-25 01:24 | 10.41169 | -61.11900 | 11744 ft | 349 kts | 141° |
| 2026-04-25 01:24 | 10.39256 | -61.10361 | 12478 ft | 352 kts | 141° |
| 2026-04-25 01:25 | 10.37328 | -61.08808 | 13216 ft | 356 kts | 141° |
| 2026-04-25 01:25 | 10.35379 | -61.07236 | 13905 ft | 360 kts | 141° |
| 2026-04-25 01:25 | 10.33404 | -61.05642 | 14577 ft | 364 kts | 141° |
| 2026-04-25 01:25 | 10.31412 | -61.04032 | 15255 ft | 368 kts | 141° |
| 2026-04-25 01:26 | 10.29400 | -61.02406 | 15901 ft | 371 kts | 141° |
| 2026-04-25 01:26 | 10.27370 | -61.00766 | 16526 ft | 375 kts | 142° |
| 2026-04-25 01:26 | 10.25314 | -60.99104 | 17126 ft | 379 kts | 142° |
| 2026-04-25 01:26 | 10.23238 | -60.97426 | 17722 ft | 383 kts | 142° |
| 2026-04-25 01:27 | 10.21147 | -60.95736 | 18309 ft | 386 kts | 142° |
| 2026-04-25 01:27 | 10.19037 | -60.94033 | 18860 ft | 390 kts | 142° |
| 2026-04-25 01:27 | 10.16903 | -60.92310 | 19401 ft | 393 kts | 142° |
| 2026-04-25 01:28 | 10.12586 | -60.88827 | 20462 ft | 399 kts | 142° |
| 2026-04-25 01:28 | 10.10403 | -60.87064 | 20958 ft | 402 kts | 142° |
| 2026-04-25 01:28 | 10.08204 | -60.85289 | 21427 ft | 405 kts | 142° |
| 2026-04-25 01:28 | 10.05988 | -60.83501 | 21889 ft | 409 kts | 142° |
| 2026-04-25 01:29 | 10.03753 | -60.81698 | 22337 ft | 412 kts | 142° |
| 2026-04-25 01:29 | 10.01503 | -60.79883 | 22778 ft | 414 kts | 142° |
| 2026-04-25 01:29 | 9.99241 | -60.78058 | 23218 ft | 416 kts | 142° |
| 2026-04-25 01:29 | 9.96963 | -60.76223 | 23601 ft | 420 kts | 142° |
| 2026-04-25 01:30 | 9.94672 | -60.74375 | 23997 ft | 422 kts | 142° |
| 2026-04-25 01:30 | 9.92365 | -60.72515 | 24373 ft | 425 kts | 142° |
| 2026-04-25 01:30 | 9.90043 | -60.70644 | 24755 ft | 427 kts | 142° |
| 2026-04-25 01:30 | 9.87717 | -60.68770 | 25152 ft | 428 kts | 142° |
| 2026-04-25 01:31 | 9.85383 | -60.66890 | 25566 ft | 429 kts | 142° |
| 2026-04-25 01:31 | 9.83039 | -60.65002 | 25924 ft | 431 kts | 142° |
| 2026-04-25 01:31 | 9.80683 | -60.63105 | 26271 ft | 433 kts | 142° |
| 2026-04-25 01:31 | 9.78319 | -60.61202 | 26605 ft | 435 kts | 142° |
| 2026-04-25 01:32 | 9.75944 | -60.59291 | 26949 ft | 437 kts | 142° |
| 2026-04-25 01:32 | 9.73528 | -60.57346 | 27294 ft | 438 kts | 142° |
| 2026-04-25 01:32 | 9.71131 | -60.55418 | 27625 ft | 440 kts | 142° |
| 2026-04-25 01:32 | 9.68728 | -60.53485 | 27937 ft | 442 kts | 142° |
| 2026-04-25 01:33 | 9.66316 | -60.51545 | 28261 ft | 443 kts | 142° |
| 2026-04-25 01:33 | 9.63893 | -60.49597 | 28558 ft | 444 kts | 142° |
| 2026-04-25 01:33 | 9.61464 | -60.47647 | 28851 ft | 447 kts | 142° |
| 2026-04-25 01:33 | 9.59020 | -60.45683 | 29125 ft | 449 kts | 142° |
| 2026-04-25 01:34 | 9.56574 | -60.43717 | 29412 ft | 450 kts | 142° |
| 2026-04-25 01:34 | 9.54118 | -60.41742 | 29735 ft | 450 kts | 142° |
| 2026-04-25 01:34 | 9.51670 | -60.39774 | 30146 ft | 448 kts | 142° |
| 2026-04-25 01:34 | 9.49233 | -60.37814 | 30596 ft | 445 kts | 142° |
| 2026-04-25 01:35 | 9.46812 | -60.35870 | 31071 ft | 443 kts | 142° |
| 2026-04-25 01:35 | 9.44401 | -60.33934 | 31437 ft | 442 kts | 142° |
| 2026-04-25 01:35 | 9.41998 | -60.32004 | 31819 ft | 440 kts | 142° |
| 2026-04-25 01:35 | 9.39603 | -60.30082 | 32225 ft | 438 kts | 142° |
| 2026-04-25 01:36 | 9.37221 | -60.28171 | 32636 ft | 436 kts | 142° |
| 2026-04-25 01:36 | 9.34844 | -60.26264 | 32964 ft | 436 kts | 142° |
| 2026-04-25 01:36 | 9.30064 | -60.22428 | 32957 ft | 438 kts | 142° |
| 2026-04-25 01:37 | 9.25323 | -60.18627 | 32959 ft | 432 kts | 142° |
| 2026-04-25 01:37 | 9.20599 | -60.14840 | 32964 ft | 432 kts | 142° |
| 2026-04-25 01:38 | 9.15904 | -60.11078 | 32960 ft | 432 kts | 142° |
| 2026-04-25 01:38 | 9.11192 | -60.07304 | 32966 ft | 432 kts | 142° |
| 2026-04-25 01:39 | 9.06475 | -60.03526 | 32961 ft | 432 kts | 142° |
| 2026-04-25 01:39 | 9.01761 | -59.99753 | 32962 ft | 432 kts | 142° |
| 2026-04-25 01:40 | 8.97052 | -59.95984 | 32961 ft | 432 kts | 142° |
| 2026-04-25 01:40 | 8.92305 | -59.92185 | 32966 ft | 431 kts | 142° |
| 2026-04-25 01:41 | 8.87404 | -59.88722 | 32966 ft | 431 kts | 147° |
| 2026-04-25 01:41 | 8.82380 | -59.85405 | 32958 ft | 431 kts | 147° |
| 2026-04-25 01:42 | 8.77364 | -59.82092 | 32962 ft | 430 kts | 147° |
| 2026-04-25 01:42 | 8.72365 | -59.78763 | 32960 ft | 430 kts | 147° |
| 2026-04-25 01:43 | 8.67368 | -59.75424 | 32962 ft | 430 kts | 146° |
| 2026-04-25 01:43 | 8.62396 | -59.72097 | 32963 ft | 430 kts | 146° |
| 2026-04-25 01:44 | 8.57372 | -59.68737 | 32966 ft | 430 kts | 146° |
| 2026-04-25 01:44 | 8.52381 | -59.65402 | 32961 ft | 429 kts | 146° |
| 2026-04-25 01:45 | 8.47399 | -59.62075 | 32961 ft | 429 kts | 146° |
| 2026-04-25 01:45 | 8.42423 | -59.58752 | 32964 ft | 429 kts | 146° |
| 2026-04-25 01:46 | 8.37415 | -59.55409 | 32961 ft | 428 kts | 146° |
| 2026-04-25 01:46 | 8.32445 | -59.52093 | 32963 ft | 428 kts | 146° |
| 2026-04-25 01:47 | 8.27476 | -59.48777 | 32964 ft | 428 kts | 146° |
| 2026-04-25 01:47 | 8.23352 | -59.46026 | 32966 ft | 428 kts | 146° |
| 2026-04-25 01:48 | 8.18352 | -59.42692 | 32966 ft | 428 kts | 146° |
| 2026-04-25 01:48 | 8.13380 | -59.39378 | 32960 ft | 428 kts | 146° |
| 2026-04-25 01:49 | 8.08413 | -59.36067 | 32965 ft | 428 kts | 146° |
| 2026-04-25 01:49 | 8.03437 | -59.32750 | 32958 ft | 428 kts | 146° |
| 2026-04-25 01:50 | 7.98462 | -59.29437 | 32969 ft | 429 kts | 146° |
| 2026-04-25 01:50 | 7.93487 | -59.26126 | 32953 ft | 423 kts | 146° |
| 2026-04-25 01:51 | 7.91078 | -59.24523 | 32944 ft | 407 kts | 146° |
| 2026-04-25 01:51 | 7.88756 | -59.22977 | 32942 ft | 393 kts | 146° |
| 2026-04-25 01:51 | 7.86510 | -59.21483 | 32941 ft | 379 kts | 146° |
| 2026-04-25 01:51 | 7.84349 | -59.20044 | 32942 ft | 366 kts | 146° |
| 2026-04-25 01:52 | 7.82259 | -59.18654 | 32943 ft | 353 kts | 146° |
| 2026-04-25 01:52 | 7.80244 | -59.17314 | 32941 ft | 341 kts | 146° |
| 2026-04-25 01:52 | 7.78302 | -59.16023 | 32943 ft | 329 kts | 146° |
| 2026-04-25 01:52 | 7.76409 | -59.14764 | 32957 ft | 325 kts | 146° |
| 2026-04-25 01:53 | 7.72529 | -59.12184 | 32987 ft | 343 kts | 146° |
| 2026-04-25 01:53 | 7.68478 | -59.09489 | 32971 ft | 349 kts | 146° |
| 2026-04-25 01:54 | 7.64425 | -59.06797 | 32954 ft | 347 kts | 146° |
| 2026-04-25 01:54 | 7.60406 | -59.04126 | 32955 ft | 344 kts | 146° |
| 2026-04-25 01:55 | 7.56425 | -59.01479 | 32955 ft | 341 kts | 146° |
| 2026-04-25 01:55 | 7.52463 | -58.98848 | 32956 ft | 340 kts | 146° |
| 2026-04-25 01:56 | 7.48520 | -58.96229 | 32962 ft | 340 kts | 146° |
| 2026-04-25 01:56 | 7.44560 | -58.93599 | 32969 ft | 342 kts | 146° |
| 2026-04-25 01:57 | 7.38569 | -58.89622 | 32974 ft | 345 kts | 146° |
| 2026-04-25 01:58 | 7.34544 | -58.86952 | 32971 ft | 347 kts | 146° |
| 2026-04-25 01:58 | 7.30503 | -58.84272 | 32959 ft | 348 kts | 146° |
| 2026-04-25 01:59 | 7.26461 | -58.81591 | 32960 ft | 348 kts | 146° |
| 2026-04-25 01:59 | 7.22427 | -58.78916 | 32957 ft | 347 kts | 146° |
| 2026-04-25 02:00 | 7.18403 | -58.76248 | 32963 ft | 346 kts | 146° |
| 2026-04-25 02:00 | 7.14387 | -58.73585 | 32960 ft | 345 kts | 146° |
| 2026-04-25 02:01 | 7.10378 | -58.70927 | 32961 ft | 345 kts | 146° |
| 2026-04-25 02:01 | 7.06346 | -58.68256 | 32963 ft | 345 kts | 146° |
| 2026-04-25 02:02 | 7.02340 | -58.65603 | 32954 ft | 342 kts | 146° |
| 2026-04-25 02:02 | 7.00367 | -58.64296 | 32731 ft | 338 kts | 146° |
| 2026-04-25 02:02 | 6.98403 | -58.62995 | 32316 ft | 339 kts | 146° |
| 2026-04-25 02:02 | 6.96428 | -58.61686 | 31871 ft | 341 kts | 146° |
| 2026-04-25 02:03 | 6.94445 | -58.60372 | 31476 ft | 341 kts | 146° |
| 2026-04-25 02:03 | 6.92465 | -58.59062 | 31129 ft | 340 kts | 146° |
| 2026-04-25 02:03 | 6.90484 | -58.57751 | 30687 ft | 342 kts | 146° |
| 2026-04-25 02:03 | 6.88409 | -58.56560 | 30219 ft | 345 kts | 160° |
| 2026-04-25 02:04 | 6.86090 | -58.55926 | 29805 ft | 346 kts | 166° |
| 2026-04-25 02:04 | 6.83736 | -58.55414 | 29316 ft | 345 kts | 167° |
| 2026-04-25 02:04 | 6.81386 | -58.54923 | 28758 ft | 344 kts | 167° |
| 2026-04-25 02:04 | 6.79045 | -58.54431 | 28209 ft | 343 kts | 167° |
| 2026-04-25 02:05 | 6.76717 | -58.53932 | 27667 ft | 342 kts | 167° |
| 2026-04-25 02:05 | 6.74394 | -58.53426 | 27104 ft | 341 kts | 167° |
| 2026-04-25 02:05 | 6.72053 | -58.52910 | 26557 ft | 339 kts | 167° |
| 2026-04-25 02:05 | 6.69752 | -58.52400 | 25988 ft | 339 kts | 167° |
| 2026-04-25 02:06 | 6.67551 | -58.51909 | 25434 ft | 339 kts | 167° |
| 2026-04-25 02:06 | 6.65159 | -58.51375 | 24786 ft | 340 kts | 166° |
| 2026-04-25 02:06 | 6.62846 | -58.50859 | 24169 ft | 341 kts | 166° |
| 2026-04-25 02:06 | 6.60523 | -58.50340 | 23549 ft | 342 kts | 166° |
| 2026-04-25 02:07 | 6.58194 | -58.49820 | 22930 ft | 343 kts | 166° |
| 2026-04-25 02:07 | 6.55864 | -58.49299 | 22311 ft | 343 kts | 166° |
| 2026-04-25 02:07 | 6.53535 | -58.48780 | 21692 ft | 343 kts | 166° |
| 2026-04-25 02:07 | 6.51202 | -58.48259 | 21066 ft | 343 kts | 166° |
| 2026-04-25 02:08 | 6.48849 | -58.47734 | 20445 ft | 342 kts | 166° |
| 2026-04-25 02:08 | 6.46525 | -58.47215 | 19822 ft | 341 kts | 166° |
| 2026-04-25 02:08 | 6.44209 | -58.46698 | 19204 ft | 341 kts | 166° |
| 2026-04-25 02:08 | 6.41881 | -58.46286 | 18566 ft | 341 kts | 177° |
| 2026-04-25 02:09 | 6.39540 | -58.46638 | 17939 ft | 343 kts | 199° |
| 2026-04-25 02:09 | 6.37483 | -58.47823 | 17315 ft | 343 kts | 220° |
| 2026-04-25 02:09 | 6.35999 | -58.49681 | 16694 ft | 342 kts | 243° |
| 2026-04-25 02:09 | 6.35305 | -58.51940 | 16072 ft | 339 kts | 265° |
| 2026-04-25 02:10 | 6.35484 | -58.54277 | 15450 ft | 335 kts | 287° |
| 2026-04-25 02:10 | 6.36481 | -58.56366 | 14830 ft | 330 kts | 308° |
| 2026-04-25 02:10 | 6.38109 | -58.57951 | 14213 ft | 324 kts | 327° |
| 2026-04-25 02:10 | 6.40121 | -58.58925 | 13587 ft | 320 kts | 345° |
| 2026-04-25 02:11 | 6.42266 | -58.59453 | 12988 ft | 316 kts | 349° |
| 2026-04-25 02:11 | 6.44403 | -58.59913 | 12382 ft | 314 kts | 349° |
| 2026-04-25 02:11 | 6.46540 | -58.60384 | 11786 ft | 312 kts | 348° |
| 2026-04-25 02:11 | 6.48648 | -58.60866 | 11185 ft | 310 kts | 348° |
| 2026-04-25 02:12 | 6.50738 | -58.61384 | 10583 ft | 308 kts | 347° |
| 2026-04-25 02:12 | 6.52838 | -58.61921 | 9975 ft | 307 kts | 347° |
| 2026-04-25 02:12 | 6.54903 | -58.62458 | 9375 ft | 306 kts | 347° |
| 2026-04-25 02:12 | 6.56964 | -58.63002 | 8779 ft | 305 kts | 347° |
| 2026-04-25 02:13 | 6.58984 | -58.63544 | 8281 ft | 301 kts | 347° |
| 2026-04-25 02:13 | 6.61053 | -58.64105 | 7761 ft | 298 kts | 347° |
| 2026-04-25 02:13 | 6.63087 | -58.64350 | 7236 ft | 289 kts | 9° |
| 2026-04-25 02:13 | 6.64389 | -58.64011 | 6901 ft | 282 kts | 27° |
| 2026-04-25 02:14 | 6.65903 | -58.62854 | 6480 ft | 269 kts | 54° |
| 2026-04-25 02:14 | 6.66668 | -58.61199 | 6082 ft | 259 kts | 81° |
| 2026-04-25 02:14 | 6.66602 | -58.59432 | 5680 ft | 252 kts | 106° |
| 2026-04-25 02:14 | 6.65830 | -58.57888 | 5363 ft | 245 kts | 126° |
| 2026-04-25 02:15 | 6.64603 | -58.56748 | 5101 ft | 239 kts | 145° |
| 2026-04-25 02:15 | 6.63158 | -58.55971 | 4853 ft | 232 kts | 151° |
| 2026-04-25 02:15 | 6.61708 | -58.55289 | 4601 ft | 229 kts | 152° |
| 2026-04-25 02:15 | 6.60263 | -58.54620 | 4344 ft | 228 kts | 152° |
| 2026-04-25 02:16 | 6.58810 | -58.53943 | 4100 ft | 227 kts | 152° |
| 2026-04-25 02:16 | 6.57400 | -58.53281 | 3995 ft | 219 kts | 151° |
| 2026-04-25 02:16 | 6.56050 | -58.52646 | 3959 ft | 209 kts | 151° |
| 2026-04-25 02:16 | 6.54777 | -58.52044 | 3947 ft | 197 kts | 151° |
| 2026-04-25 02:17 | 6.53573 | -58.51472 | 3941 ft | 188 kts | 150° |
| 2026-04-25 02:17 | 6.52388 | -58.50907 | 3957 ft | 189 kts | 150° |
| 2026-04-25 02:17 | 6.51207 | -58.50343 | 3957 ft | 186 kts | 150° |
| 2026-04-25 02:17 | 6.50041 | -58.49786 | 3949 ft | 184 kts | 150° |
| 2026-04-25 02:18 | 6.48891 | -58.49237 | 3954 ft | 182 kts | 150° |
| 2026-04-25 02:18 | 6.47750 | -58.48692 | 3949 ft | 180 kts | 150° |
| 2026-04-25 02:18 | 6.46606 | -58.48145 | 3973 ft | 185 kts | 150° |
| 2026-04-25 02:18 | 6.45425 | -58.47579 | 4001 ft | 196 kts | 150° |
| 2026-04-25 02:19 | 6.44151 | -58.46968 | 3976 ft | 208 kts | 150° |
| 2026-04-25 02:19 | 6.42836 | -58.46275 | 3845 ft | 210 kts | 139° |
| 2026-04-25 02:19 | 6.41804 | -58.45259 | 3722 ft | 207 kts | 131° |
| 2026-04-25 02:19 | 6.40795 | -58.44223 | 3573 ft | 204 kts | 132° |
| 2026-04-25 02:20 | 6.39809 | -58.43228 | 3429 ft | 201 kts | 132° |
| 2026-04-25 02:20 | 6.38823 | -58.42237 | 3285 ft | 200 kts | 132° |
| 2026-04-25 02:20 | 6.37836 | -58.41247 | 3150 ft | 201 kts | 132° |
| 2026-04-25 02:20 | 6.37123 | -58.40081 | 3018 ft | 196 kts | 96° |
| 2026-04-25 02:21 | 6.37417 | -58.38775 | 3017 ft | 196 kts | 63° |
| 2026-04-25 02:21 | 6.38057 | -58.37614 | 2997 ft | 183 kts | 61° |
| 2026-04-25 02:21 | 6.38796 | -58.36621 | 2853 ft | 173 kts | 53° |
| 2026-04-25 02:21 | 6.39571 | -58.35748 | 2648 ft | 161 kts | 49° |
| 2026-04-25 02:22 | 6.40306 | -58.34981 | 2470 ft | 149 kts | 47° |
| 2026-04-25 02:22 | 6.41035 | -58.34239 | 2257 ft | 146 kts | 46° |
| 2026-04-25 02:22 | 6.41751 | -58.33518 | 2064 ft | 146 kts | 45° |
| 2026-04-25 02:22 | 6.42478 | -58.32790 | 1867 ft | 148 kts | 45° |
| 2026-04-25 02:23 | 6.43220 | -58.32048 | 1674 ft | 149 kts | 45° |
| 2026-04-25 02:23 | 6.43955 | -58.31313 | 1467 ft | 149 kts | 44° |
| 2026-04-25 02:23 | 6.44693 | -58.30576 | 1269 ft | 151 kts | 44° |
| 2026-04-25 02:23 | 6.45445 | -58.29826 | 1069 ft | 152 kts | 44° |
| 2026-04-25 02:24 | 6.46195 | -58.29076 | 866 ft | 152 kts | 44° |
| 2026-04-25 02:24 | 6.46947 | -58.28324 | 661 ft | 152 kts | 44° |
| 2026-04-25 02:24 | 6.47699 | -58.27572 | 458 ft | 152 kts | 44° |
| 2026-04-25 02:24 | 6.48445 | -58.26827 | 269 ft | 151 kts | 45° |
| 2026-04-25 02:25 | 6.49180 | -58.26083 | 115 ft | 147 kts | 44° |
| 2026-04-25 02:25 | 6.49848 | -58.25419 | 104 ft | 113 kts | 43° |
| 2026-04-25 02:25 | 6.50223 | -58.25051 | 103 ft | 39 kts | 45° |
| 2026-04-25 02:25 | 6.50413 | -58.24859 | 104 ft | 37 kts | 48° |
| 2026-04-25 02:26 | 6.50582 | -58.24688 | 106 ft | 32 kts | 44° |
| 2026-04-25 02:26 | 6.50655 | -58.24680 | 105 ft | 5 kts | 289° |
| 2026-04-25 02:26 | 6.50653 | -58.24728 | 105 ft | 8 kts | 255° |
| 2026-04-25 02:26 | 6.50630 | -58.24780 | 104 ft | 8 kts | 243° |
| 2026-04-25 02:27 | 6.50597 | -58.24825 | 104 ft | 8 kts | 224° |
| 2026-04-25 02:27 | 6.50559 | -58.24864 | 104 ft | 8 kts | 225° |
| 2026-04-25 02:27 | 6.50522 | -58.24902 | 103 ft | 7 kts | 225° |
| 2026-04-25 02:27 | 6.50486 | -58.24938 | 103 ft | 8 kts | 225° |
| 2026-04-25 02:28 | 6.50439 | -58.24985 | 103 ft | 11 kts | 225° |
| 2026-04-25 02:28 | 6.50378 | -58.25045 | 103 ft | 13 kts | 224° |
| 2026-04-25 02:28 | 6.50347 | -58.25121 | 103 ft | 13 kts | 282° |
| 2026-04-25 02:28 | 6.50329 | -58.25178 | 103 ft | 4 kts | 266° |
| 2026-04-25 02:29 | 6.50341 | -58.25198 | 103 ft | 4 kts | 307° |
| 2026-04-25 02:29 | 6.50353 | -58.25212 | 103 ft | 0 kts | 315° |
| 2026-04-25 02:29 | 6.50354 | -58.25213 | 103 ft | 0 kts | 315° |